Time;durP1;ratioP1;P1;durP2;ratioP2;P2;SDS_P1;SDS_P2;PMS_P1;PMS_P2;Temp;Humidity;BMP_temperature;BMP_pressure;BME280_temperature;BME280_humidity;BME280_pressure;Samples;Min_cycle;Max_cycle;Signal;HPM_P1;HPM_P2
2023/10/30 00:00:58;;;;;;;;;;;;;;;12.76;100.00;96982.41;5086653;28;19932;-81
2023/10/30 00:03:25;;;;;;;;;;;;;;;12.75;100.00;96984.28;5084712;28;19928;-83
2023/10/30 00:05:52;;;;;;;;;;;;;;;12.72;100.00;96978.75;5084581;28;19923;-80
2023/10/30 00:08:18;;;;;;;;;;;;;;;12.75;100.00;96976.25;5086817;28;20482;-80
2023/10/30 00:10:45;;;;;;;;;;;;;;;12.76;100.00;96993.94;5086726;28;19924;-81
2023/10/30 00:13:11;;;;;;;;;;;;;;;12.68;100.00;96997.31;5083213;28;20508;-80
2023/10/30 00:15:37;;;;;;;;;;;;;;;12.66;100.00;96994.13;5076122;28;20268;-81
2023/10/30 00:18:04;;;;;;;;;;;;;;;12.68;100.00;96997.31;5079177;28;19979;-81
2023/10/30 00:20:32;;;;;;;;;;;;;;;12.70;100.00;97000.47;5082495;28;20415;-80
2023/10/30 00:22:58;;;;;;;;;;;;;;;12.75;100.00;97007.63;5077669;28;19928;-80
2023/10/30 00:25:24;;;;;;;;;;;;;;;12.74;100.00;97014.88;5071998;28;20730;-80
2023/10/30 00:27:50;;;;;;;;;;;;;;;12.78;100.00;97007.03;5085772;28;19927;-81
2023/10/30 00:30:17;;;;;;;;;;;;;;;12.82;100.00;97008.00;5084198;28;20603;-81
2023/10/30 00:32:44;;;;;;;;;;;;;;;12.86;100.00;97009.81;5084288;28;19932;-81
2023/10/30 00:35:10;;;;;;;;;;;;;;;12.85;100.00;96994.81;5087353;28;19924;-80
2023/10/30 00:37:38;;;;;;;;;;;;;;;12.82;100.00;97008.81;5076167;28;19951;-81
2023/10/30 00:40:05;;;;;;;;;;;;;;;12.75;100.00;97015.66;5075836;28;19983;-79
2023/10/30 00:42:31;;;;;;;;;;;;;;;12.76;100.00;97025.28;5080347;28;19960;-80
2023/10/30 00:44:57;;;;;;;;;;;;;;;12.77;100.00;97022.31;5086435;28;19928;-80
2023/10/30 00:47:24;;;;;;;;;;;;;;;12.87;100.00;97024.78;5083827;28;20027;-80
2023/10/30 00:49:50;;;;;;;;;;;;;;;12.82;100.00;97022.19;5083304;28;19963;-80
2023/10/30 00:52:17;;;;;;;;;;;;;;;12.77;100.00;97016.16;5086260;28;20010;-80
2023/10/30 00:54:45;;;;;;;;;;;;;;;12.70;100.00;97010.41;5090403;28;19924;-80
2023/10/30 00:57:12;;;;;;;;;;;;;;;12.60;100.00;97015.94;5070381;28;20008;-80
2023/10/30 00:59:38;;;;;;;;;;;;;;;12.59;100.00;97017.84;5085937;28;19934;-81
2023/10/30 01:02:05;;;;;;;;;;;;;;;12.63;100.00;97024.19;5090128;28;20535;-81
2023/10/30 01:04:31;;;;;;;;;;;;;;;12.66;100.00;97023.59;5088977;28;19924;-80
2023/10/30 01:06:58;;;;;;;;;;;;;;;12.67;100.00;97030.53;5089810;28;19927;-80
2023/10/30 01:09:24;;;;;;;;;;;;;;;12.68;100.00;97028.66;5089968;28;20506;-81
2023/10/30 01:11:52;;;;;;;;;;;;;;;12.63;100.00;97010.78;5090511;28;19931;-81
2023/10/30 01:14:18;;;;;;;;;;;;;;;12.65;100.00;97019.34;5090395;28;19977;-80
2023/10/30 01:16:44;;;;;;;;;;;;;;;12.67;100.00;97021.72;5089980;28;19931;-80
2023/10/30 01:19:11;;;;;;;;;;;;;;;12.73;100.00;97010.59;5089906;28;20030;-80
2023/10/30 01:21:38;;;;;;;;;;;;;;;12.66;100.00;97004.84;5089907;28;20019;-80
2023/10/30 01:24:05;;;;;;;;;;;;;;;12.36;100.00;97000.06;5089724;28;19928;-80
2023/10/30 01:26:31;;;;;;;;;;;;;;;12.21;100.00;96998.47;5089411;28;20299;-80
2023/10/30 01:28:59;;;;;;;;;;;;;;;12.30;100.00;96988.66;5088378;28;20299;-80
2023/10/30 01:31:27;;;;;;;;;;;;;;;12.39;100.00;96986.88;5089541;28;19964;-80
2023/10/30 01:33:54;;;;;;;;;;;;;;;12.48;100.00;96986.19;5089918;28;20383;-80
2023/10/30 01:36:20;;;;;;;;;;;;;;;12.52;100.00;96992.53;5074302;28;19935;-81
2023/10/30 01:38:47;;;;;;;;;;;;;;;12.52;100.00;97013.97;5089473;28;19930;-80
2023/10/30 01:41:13;;;;;;;;;;;;;;;12.55;100.00;97003.47;5086306;28;19924;-80
2023/10/30 01:43:39;;;;;;;;;;;;;;;12.56;100.00;96999.69;5089393;28;19924;-81
2023/10/30 01:46:07;;;;;;;;;;;;;;;12.57;100.00;97006.63;5089048;28;19928;-81
2023/10/30 01:48:34;;;;;;;;;;;;;;;12.58;100.00;97002.88;5088317;28;19947;-80
2023/10/30 01:51:01;;;;;;;;;;;;;;;12.58;100.00;97010.91;5085624;28;19997;-80
2023/10/30 01:53:29;;;;;;;;;;;;;;;12.59;100.00;96999.09;5085793;28;19928;-80
2023/10/30 01:55:56;;;;;;;;;;;;;;;12.58;100.00;97010.91;5089334;28;19931;-81
2023/10/30 01:58:23;;;;;;;;;;;;;;;12.57;100.00;97014.66;5088776;28;19924;-83
2023/10/30 02:00:51;;;;;;;;;;;;;;;12.58;100.00;97018.13;5089109;28;20326;-80
2023/10/30 02:03:18;;;;;;;;;;;;;;;12.57;100.00;97017.34;5089031;28;20019;-80
2023/10/30 02:05:45;;;;;;;;;;;;;;;12.57;100.00;97022.69;5084838;28;20432;-80
2023/10/30 02:08:12;;;;;;;;;;;;;;;12.58;100.00;97028.84;5087497;28;20592;-80
2023/10/30 02:10:38;;;;;;;;;;;;;;;12.56;100.00;97031.84;5087865;28;20286;-81
2023/10/30 02:13:05;;;;;;;;;;;;;;;12.54;100.00;97023.28;5087067;28;20018;-81
2023/10/30 02:15:31;;;;;;;;;;;;;;;12.54;100.00;97019.81;5088851;28;19928;-80
2023/10/30 02:17:58;;;;;;;;;;;;;;;12.53;100.00;97019.03;5088336;28;19924;-80
2023/10/30 02:20:26;;;;;;;;;;;;;;;12.52;100.00;97020.13;5087285;28;20621;-79
2023/10/30 02:22:52;;;;;;;;;;;;;;;12.48;100.00;97031.69;5088432;28;20417;-80
2023/10/30 02:25:20;;;;;;;;;;;;;;;12.44;100.00;97044.88;5084244;28;19932;-81
2023/10/30 02:27:46;;;;;;;;;;;;;;;12.45;100.00;97046.47;5085450;28;19950;-80
2023/10/30 02:30:13;;;;;;;;;;;;;;;12.42;100.00;97047.06;5078503;28;19928;-80
2023/10/30 02:32:42;;;;;;;;;;;;;;;12.40;100.00;97035.88;5088091;28;19963;-81
2023/10/30 02:35:10;;;;;;;;;;;;;;;12.33;100.00;97040.81;5088153;28;19928;-81
2023/10/30 02:37:36;;;;;;;;;;;;;;;12.37;100.00;97033.78;5087964;28;19931;-80
2023/10/30 02:40:03;;;;;;;;;;;;;;;12.38;100.00;97028.13;5088249;28;20501;-80
2023/10/30 02:42:30;;;;;;;;;;;;;;;12.37;100.00;97034.59;5086847;28;20003;-80
2023/10/30 02:44:57;;;;;;;;;;;;;;;12.39;100.00;97029.72;5088602;28;19924;-80
2023/10/30 02:47:24;;;;;;;;;;;;;;;12.43;100.00;97027.25;5087878;28;19935;-80
2023/10/30 02:49:50;;;;;;;;;;;;;;;12.45;100.00;97031.22;5086821;28;20010;-80
2023/10/30 02:52:18;;;;;;;;;;;;;;;12.34;100.00;97034.38;5088243;28;20629;-79
2023/10/30 02:54:44;;;;;;;;;;;;;;;12.32;100.00;97044.56;5086899;28;19924;-81
2023/10/30 02:57:10;;;;;;;;;;;;;;;12.33;100.00;97048.84;5088170;28;20011;-81
2023/10/30 02:59:38;;;;;;;;;;;;;;;12.32;100.00;97044.56;5088050;28;20638;-81
2023/10/30 03:02:04;;;;;;;;;;;;;;;12.34;100.00;97026.34;5088267;28;19970;-80
2023/10/30 03:04:30;;;;;;;;;;;;;;;12.31;100.00;97026.94;5088420;28;20353;-81
2023/10/30 03:06:58;;;;;;;;;;;;;;;12.31;100.00;97033.09;5077728;28;19935;-81
2023/10/30 03:09:25;;;;;;;;;;;;;;;12.30;100.00;97044.09;5088216;28;19924;-80
2023/10/30 03:11:51;;;;;;;;;;;;;;;12.31;100.00;97051.03;5088328;28;19928;-81
2023/10/30 03:14:17;;;;;;;;;;;;;;;12.30;100.00;97054.78;5088400;28;20011;-80
2023/10/30 03:16:45;;;;;;;;;;;;;;;12.30;100.00;97052.13;5086993;28;19967;-81
2023/10/30 03:19:11;;;;;;;;;;;;;;;12.27;100.00;97047.34;5084506;28;19931;-80
2023/10/30 03:21:38;;;;;;;;;;;;;;;12.31;100.00;97034.97;5087995;28;19929;-80
2023/10/30 03:24:05;;;;;;;;;;;;;;;12.26;100.00;97033.16;5087772;28;19981;-80
2023/10/30 03:26:31;;;;;;;;;;;;;;;12.28;100.00;97035.56;5087890;28;20417;-80
2023/10/30 03:28:57;;;;;;;;;;;;;;;12.23;100.00;97047.13;5072806;28;20406;-80
2023/10/30 03:31:24;;;;;;;;;;;;;;;12.27;100.00;97058.06;5085063;28;19971;-81
2023/10/30 03:33:52;;;;;;;;;;;;;;;12.20;100.00;97055.75;5082071;28;19924;-80
2023/10/30 03:36:22;;;;;;;;;;;;;;;12.12;100.00;97053.75;5081994;28;20075;-80
2023/10/30 03:38:49;;;;;;;;;;;;;;;12.16;100.00;97054.75;5077501;28;19928;-80
2023/10/30 03:41:16;;;;;;;;;;;;;;;12.15;100.00;97042.47;5086523;28;20392;-82
2023/10/30 03:43:42;;;;;;;;;;;;;;;12.19;100.00;97042.69;5087878;28;19924;-80
2023/10/30 03:46:08;;;;;;;;;;;;;;;12.15;100.00;97049.69;5083458;28;19924;-80
2023/10/30 03:48:35;;;;;;;;;;;;;;;12.17;100.00;97053.66;5087577;28;19936;-80
2023/10/30 03:51:03;;;;;;;;;;;;;;;12.17;100.00;97058.22;5087896;28;19930;-81
2023/10/30 03:53:30;;;;;;;;;;;;;;;12.17;100.00;97059.03;5088021;28;19958;-81
2023/10/30 03:55:56;;;;;;;;;;;;;;;12.20;100.00;97060.31;5088063;28;19934;-80
2023/10/30 03:58:23;;;;;;;;;;;;;;;12.18;100.00;97052.59;5086628;28;19928;-81
2023/10/30 04:00:49;;;;;;;;;;;;;;;12.17;100.00;97055.53;5088067;28;19928;-80
2023/10/30 04:03:16;;;;;;;;;;;;;;;12.11;100.00;97065.53;5087671;28;20015;-81
2023/10/30 04:05:42;;;;;;;;;;;;;;;12.14;100.00;97073.00;5085540;28;19950;-80
2023/10/30 04:08:10;;;;;;;;;;;;;;;12.13;100.00;97074.06;5086004;28;19998;-80
2023/10/30 04:10:36;;;;;;;;;;;;;;;12.11;100.00;97070.91;5107085;27;20007;-81
2023/10/30 04:13:03;;;;;;;;;;;;;;;12.13;100.00;97070.63;5088212;28;19928;-80
2023/10/30 04:15:29;;;;;;;;;;;;;;;12.16;100.00;97064.69;5087927;28;20015;-80
2023/10/30 04:17:56;;;;;;;;;;;;;;;12.10;100.00;97071.22;5091093;28;19924;-80
2023/10/30 04:20:22;;;;;;;;;;;;;;;12.08;100.00;97070.69;5091198;28;19924;-79
2023/10/30 04:22:49;;;;;;;;;;;;;;;12.07;100.00;97063.75;5091318;28;19946;-80
2023/10/30 04:25:18;;;;;;;;;;;;;;;12.06;100.00;97048.78;5090965;28;19928;-80
2023/10/30 04:27:44;;;;;;;;;;;;;;;12.06;100.00;97054.13;5091182;28;20474;-80
2023/10/30 04:30:11;;;;;;;;;;;;;;;12.03;100.00;97046.69;5091061;28;19924;-81
2023/10/30 04:32:37;;;;;;;;;;;;;;;12.05;100.00;97034.59;5090948;28;20030;-80
2023/10/30 04:35:04;;;;;;;;;;;;;;;12.05;100.00;97039.16;5089735;28;19924;-80
2023/10/30 04:37:30;;;;;;;;;;;;;;;12.01;100.00;97030.16;5120727;27;19928;-80
2023/10/30 04:39:57;;;;;;;;;;;;;;;11.90;100.00;97032.97;5090716;28;19955;-81
2023/10/30 04:42:24;;;;;;;;;;;;;;;12.01;100.00;97032.81;5090696;28;20401;-80
2023/10/30 04:44:51;;;;;;;;;;;;;;;11.91;100.00;97021.16;5090698;28;19924;-81
2023/10/30 04:47:19;;;;;;;;;;;;;;;11.92;100.00;97011.28;5090144;28;20015;-81
2023/10/30 04:49:45;;;;;;;;;;;;;;;11.90;100.00;97003.56;5090124;28;20020;-81
2023/10/30 04:52:12;;;;;;;;;;;;;;;11.71;100.00;96997.44;5089925;28;19928;-79
2023/10/30 04:54:39;;;;;;;;;;;;;;;11.71;100.00;96994.75;5090126;28;19928;-80
2023/10/30 04:57:05;;;;;;;;;;;;;;;11.78;100.00;97002.41;5090594;28;20033;-80
2023/10/30 04:59:33;;;;;;;;;;;;;;;11.85;100.00;97000.16;5090087;28;19928;-79
2023/10/30 05:02:01;;;;;;;;;;;;;;;11.88;100.00;97016.41;5090491;28;19999;-80
2023/10/30 05:04:27;;;;;;;;;;;;;;;11.93;100.00;97014.75;5090288;28;20041;-80
2023/10/30 05:06:54;;;;;;;;;;;;;;;11.90;100.00;97013.47;5086119;28;20053;-80
2023/10/30 05:09:20;;;;;;;;;;;;;;;11.89;100.00;97001.16;5088590;28;19934;-79
2023/10/30 05:11:46;;;;;;;;;;;;;;;11.89;100.00;96998.47;5089952;28;20003;-80
2023/10/30 05:14:13;;;;;;;;;;;;;;;11.81;100.00;96999.97;5082129;28;20323;-79
2023/10/30 05:16:41;;;;;;;;;;;;;;;11.82;100.00;96996.19;5089836;28;19928;-80
2023/10/30 05:19:07;;;;;;;;;;;;;;;11.82;100.00;96998.84;5089849;28;20026;-81
2023/10/30 05:21:34;;;;;;;;;;;;;;;11.78;100.00;96994.41;5089925;28;20383;-80
2023/10/30 05:24:00;;;;;;;;;;;;;;;11.77;100.00;97004.28;5088470;28;19928;-80
2023/10/30 05:26:27;;;;;;;;;;;;;;;11.79;100.00;96998.66;5088727;28;20015;-81
2023/10/30 05:28:53;;;;;;;;;;;;;;;11.73;100.00;97008.63;5088460;28;20660;-79
2023/10/30 05:31:20;;;;;;;;;;;;;;;11.70;100.00;97006.53;5089860;28;19990;-80
2023/10/30 05:33:47;;;;;;;;;;;;;;;11.72;100.00;97004.38;5089706;28;20021;-81
2023/10/30 05:36:14;;;;;;;;;;;;;;;11.56;100.00;97005.69;5090176;28;19927;-81
2023/10/30 05:38:40;;;;;;;;;;;;;;;11.61;100.00;97005.59;5087867;28;20009;-80
2023/10/30 05:41:06;;;;;;;;;;;;;;;11.66;100.00;97002.06;5089282;28;20014;-80
2023/10/30 05:43:33;;;;;;;;;;;;;;;11.58;100.00;97008.84;5077507;28;20003;-80
2023/10/30 05:45:59;;;;;;;;;;;;;;;11.59;100.00;96994.41;5085785;28;20018;-81
2023/10/30 05:48:25;;;;;;;;;;;;;;;11.64;100.00;96994.31;5089488;28;19924;-80
2023/10/30 05:50:53;;;;;;;;;;;;;;;11.69;100.00;96988.09;5088141;28;19924;-81
2023/10/30 05:53:20;;;;;;;;;;;;;;;11.72;100.00;96999.03;5089716;28;20375;-81
2023/10/30 05:55:46;;;;;;;;;;;;;;;11.73;100.00;96999.81;5089454;28;19924;-80
2023/10/30 05:58:14;;;;;;;;;;;;;;;11.74;100.00;97001.41;5089042;28;20018;-80
2023/10/30 06:00:40;;;;;;;;;;;;;;;11.73;100.00;96992.59;5089263;28;20438;-80
2023/10/30 06:03:07;;;;;;;;;;;;;;;11.72;100.00;96992.88;5089116;28;19924;-80
2023/10/30 06:05:34;;;;;;;;;;;;;;;11.66;100.00;96994.81;5089069;28;19975;-82
2023/10/30 06:08:01;;;;;;;;;;;;;;;11.55;100.00;96990.72;5088887;28;19932;-81
2023/10/30 06:10:28;;;;;;;;;;;;;;;11.59;100.00;96998.94;5089128;28;19928;-81
2023/10/30 06:12:54;;;;;;;;;;;;;;;11.64;100.00;96998.84;5087772;28;19931;-81
2023/10/30 06:15:20;;;;;;;;;;;;;;;11.64;100.00;97002.31;5081457;28;19924;-80
2023/10/30 06:17:47;;;;;;;;;;;;;;;11.65;100.00;97009.28;5089203;28;19924;-81
2023/10/30 06:20:13;;;;;;;;;;;;;;;11.65;100.00;97003.13;5087424;28;19924;-81
2023/10/30 06:22:39;;;;;;;;;;;;;;;11.66;100.00;96996.72;5089283;28;19934;-81
2023/10/30 06:25:09;;;;;;;;;;;;;;;11.66;100.00;96992.16;5094877;28;19942;-82
2023/10/30 06:27:35;;;;;;;;;;;;;;;11.68;100.00;96989.19;5087639;28;19928;-81
2023/10/30 06:30:02;;;;;;;;;;;;;;;11.65;100.00;96990.56;5088991;28;19924;-81
2023/10/30 06:32:28;;;;;;;;;;;;;;;11.63;100.00;97000.75;5087729;28;19931;-81
2023/10/30 06:34:54;;;;;;;;;;;;;;;11.63;100.00;96997.28;5088258;28;19924;-82
2023/10/30 06:37:21;;;;;;;;;;;;;;;11.62;100.00;97004.50;5086569;28;19924;-81
2023/10/30 06:39:47;;;;;;;;;;;;;;;11.60;100.00;97021.94;5087488;28;20314;-82
2023/10/30 06:42:15;;;;;;;;;;;;;;;11.60;100.00;97029.97;5088656;28;19930;-81
2023/10/30 06:44:41;;;;;;;;;;;;;;;11.56;100.00;97029.75;5087559;28;19924;-80
2023/10/30 06:47:07;;;;;;;;;;;;;;;11.53;100.00;97030.31;5088686;28;19927;-82
2023/10/30 06:49:34;;;;;;;;;;;;;;;11.58;100.00;97029.44;5088812;28;19928;-81
2023/10/30 06:52:00;;;;;;;;;;;;;;;11.58;100.00;97026.75;5087593;28;19932;-82
2023/10/30 06:54:27;;;;;;;;;;;;;;;11.57;100.00;97031.34;5087284;28;19932;-81
2023/10/30 06:56:54;;;;;;;;;;;;;;;11.57;100.00;97036.69;5088741;28;19927;-82
2023/10/30 06:59:21;;;;;;;;;;;;;;;11.56;100.00;97032.41;5088833;28;20000;-83
2023/10/30 07:01:48;;;;;;;;;;;;;;;11.57;100.00;97034.00;5088712;28;19966;-81
2023/10/30 07:04:14;;;;;;;;;;;;;;;11.56;100.00;97028.94;5083850;28;19931;-81
2023/10/30 07:06:42;;;;;;;;;;;;;;;11.62;100.00;97022.44;5088416;28;19924;-83
2023/10/30 07:09:08;;;;;;;;;;;;;;;11.59;100.00;97029.16;5088586;28;19928;-81
2023/10/30 07:11:35;;;;;;;;;;;;;;;11.57;100.00;97026.00;5088468;28;19927;-83
2023/10/30 07:14:02;;;;;;;;;;;;;;;11.57;100.00;97027.88;5088456;28;20433;-82
2023/10/30 07:16:30;;;;;;;;;;;;;;;11.61;100.00;97018.16;5087377;28;19928;-83
2023/10/30 07:18:56;;;;;;;;;;;;;;;11.61;100.00;97002.91;5088314;28;19931;-82
2023/10/30 07:21:23;;;;;;;;;;;;;;;11.62;100.00;97017.88;5086651;28;19934;-81
2023/10/30 07:23:49;;;;;;;;;;;;;;;11.66;100.00;97007.41;5088040;28;19934;-81
2023/10/30 07:26:17;;;;;;;;;;;;;;;11.64;100.00;97002.31;5086743;28;20018;-82
2023/10/30 07:28:43;;;;;;;;;;;;;;;11.66;100.00;97013.56;5087950;28;20570;-81
2023/10/30 07:31:09;;;;;;;;;;;;;;;11.67;100.00;97014.31;5089293;28;20443;-83
2023/10/30 07:33:37;;;;;;;;;;;;;;;11.60;100.00;97014.72;5088532;28;20255;-82
2023/10/30 07:36:04;;;;;;;;;;;;;;;11.66;100.00;97002.84;5082073;28;19924;-82
2023/10/30 07:38:30;;;;;;;;;;;;;;;11.59;100.00;97007.78;5078840;28;19951;-82
2023/10/30 07:40:57;;;;;;;;;;;;;;;11.61;100.00;97005.59;5084486;28;19924;-83
2023/10/30 07:43:23;;;;;;;;;;;;;;;11.64;100.00;97002.31;5084630;28;20029;-82
2023/10/30 07:45:50;;;;;;;;;;;;;;;11.60;100.00;96995.19;5084609;28;19931;-82
2023/10/30 07:48:16;;;;;;;;;;;;;;;11.60;100.00;97005.91;5089499;28;19924;-82
2023/10/30 07:50:44;;;;;;;;;;;;;;;11.62;100.00;96996.50;5090617;28;20331;-82
2023/10/30 07:53:10;;;;;;;;;;;;;;;11.51;100.00;97000.41;5087093;28;19964;-81
2023/10/30 07:55:39;;;;;;;;;;;;;;;11.35;100.00;96997.16;5091887;28;20428;-82
2023/10/30 07:58:06;;;;;;;;;;;;;;;11.30;100.00;96996.44;5091365;28;19958;-83
2023/10/30 08:00:32;;;;;;;;;;;;;;;11.25;100.00;96993.84;5091608;28;19999;-82
2023/10/30 08:02:59;;;;;;;;;;;;;;;11.29;100.00;97002.88;5091614;28;20421;-83
2023/10/30 08:05:26;;;;;;;;;;;;;;;11.42;100.00;96999.44;5091158;28;19928;-83
2023/10/30 08:07:53;;;;;;;;;;;;;;;11.46;100.00;96992.44;5089522;28;20035;-84
2023/10/30 08:10:20;;;;;;;;;;;;;;;11.42;100.00;96990.66;5091171;28;20031;-84
2023/10/30 08:12:46;;;;;;;;;;;;;;;11.47;100.00;96993.25;5090175;28;20389;-82
2023/10/30 08:15:13;;;;;;;;;;;;;;;11.56;100.00;96986.16;5091410;28;20543;-83
2023/10/30 08:17:39;;;;;;;;;;;;;;;11.63;100.00;96981.25;5090412;28;20015;-82
2023/10/30 08:20:06;;;;;;;;;;;;;;;11.67;100.00;96984.91;5091158;28;19978;-83
2023/10/30 08:22:33;;;;;;;;;;;;;;;11.60;100.00;96987.19;5091323;28;19924;-82
2023/10/30 08:25:00;;;;;;;;;;;;;;;11.62;100.00;96985.00;5089925;28;19928;-83
2023/10/30 08:27:27;;;;;;;;;;;;;;;11.70;100.00;96977.13;5088736;28;19931;-82
2023/10/30 08:29:54;;;;;;;;;;;;;;;11.69;100.00;96975.53;5088749;28;19939;-83
2023/10/30 08:32:20;;;;;;;;;;;;;;;11.80;100.00;96968.94;5087015;28;19982;-81
2023/10/30 08:34:46;;;;;;;;;;;;;;;11.84;100.00;96958.44;5082657;28;19967;-79
2023/10/30 08:37:13;;;;;;;;;;;;;;;11.86;100.00;96959.75;5081151;28;19924;-81
2023/10/30 08:39:39;;;;;;;;;;;;;;;11.87;100.00;96960.53;5086939;28;20738;-84
2023/10/30 08:42:07;;;;;;;;;;;;;;;11.89;100.00;96956.47;5087602;28;20018;-83
2023/10/30 08:44:33;;;;;;;;;;;;;;;11.83;100.00;96957.66;5091694;28;19930;-85
2023/10/30 08:47:00;;;;;;;;;;;;;;;11.86;100.00;96959.75;5091003;28;19930;-84
2023/10/30 08:49:26;;;;;;;;;;;;;;;11.98;100.00;96958.47;5090501;28;19924;-84
2023/10/30 08:51:52;;;;;;;;;;;;;;;12.02;100.00;96964.81;5097910;28;20294;-82
2023/10/30 08:54:19;;;;;;;;;;;;;;;11.99;100.00;96955.50;5089970;28;19938;-86
2023/10/30 08:56:46;;;;;;;;;;;;;;;11.91;100.00;96956.97;5088685;28;19938;-85
2023/10/30 08:59:14;;;;;;;;;;;;;;;11.89;100.00;96961.81;5085845;28;20380;-86
2023/10/30 09:01:41;;;;;;;;;;;;;;;12.01;100.00;96945.28;5079008;28;19931;-86
2023/10/30 09:04:08;;;;;;;;;;;;;;;12.03;100.00;96947.69;5081448;28;20019;-85
2023/10/30 09:06:34;;;;;;;;;;;;;;;12.07;100.00;96943.34;5084525;28;19960;-84
2023/10/30 09:09:01;;;;;;;;;;;;;;;12.11;100.00;96941.63;5087522;28;19928;-84
2023/10/30 09:11:27;;;;;;;;;;;;;;;12.05;100.00;96930.25;5094010;28;19924;-85
2023/10/30 09:13:54;;;;;;;;;;;;;;;12.17;100.00;96933.22;5089094;28;19928;-83
2023/10/30 09:16:22;;;;;;;;;;;;;;;12.18;100.00;96923.31;5084550;28;19974;-87
2023/10/30 09:18:48;;;;;;;;;;;;;;;12.29;100.00;96922.81;5083404;28;19924;-85
2023/10/30 09:21:14;;;;;;;;;;;;;;;12.41;100.00;96916.97;5088509;28;19928;-85
2023/10/30 09:23:43;;;;;;;;;;;;;;;12.51;100.00;96924.78;5087496;28;20014;-84
2023/10/30 09:26:10;;;;;;;;;;;;;;;12.49;100.00;96923.50;5086720;28;19934;-86
2023/10/30 09:28:37;;;;;;;;;;;;;;;12.52;100.00;96917.56;5087072;28;19930;-86
2023/10/30 09:31:04;;;;;;;;;;;;;;;12.57;100.00;96912.88;5083478;28;19924;-83
2023/10/30 09:33:32;;;;;;;;;;;;;;;12.59;100.00;96910.72;5084333;28;20045;-82
2023/10/30 09:35:58;;;;;;;;;;;;;;;12.69;100.00;96917.75;5098325;28;19928;-84
2023/10/30 09:38:25;;;;;;;;;;;;;;;12.84;100.00;96920.88;5081600;28;19999;-84
2023/10/30 09:40:57;;;;;;;;;;;;;;;12.71;100.00;96919.03;5076229;28;19924;-85
2023/10/30 09:43:25;;;;;;;;;;;;;;;12.89;100.00;96928.81;5086376;28;19928;-84
2023/10/30 09:45:54;;;;;;;;;;;;;;;12.92;100.00;96916.69;5087505;28;20464;-86
2023/10/30 09:48:20;;;;;;;;;;;;;;;13.03;100.00;96917.28;5090573;28;20019;-84
2023/10/30 09:50:48;;;;;;;;;;;;;;;12.90;100.00;96903.59;5086678;28;20487;-86
2023/10/30 09:53:15;;;;;;;;;;;;;;;12.92;100.00;96901.41;5089648;28;19924;-85
2023/10/30 09:55:42;;;;;;;;;;;;;;;12.87;100.00;96898.84;5086966;28;19924;-85
2023/10/30 09:58:09;;;;;;;;;;;;;;;12.92;100.00;96897.94;5085822;28;20952;-83
2023/10/30 10:00:36;;;;;;;;;;;;;;;13.02;100.00;96892.34;5077701;28;20322;-85
2023/10/30 10:03:04;;;;;;;;;;;;;;;13.11;100.00;96895.13;5087054;28;19986;-88
2023/10/30 10:05:31;;;;;;;;;;;;;;;13.17;100.00;96875.94;5088283;28;19935;-85
2023/10/30 10:07:59;;;;;;;;;;;;;;;13.27;100.00;96880.28;5089652;28;19931;-85
2023/10/30 10:10:25;;;;;;;;;;;;;;;13.28;100.00;96873.81;5089791;28;20003;-84
2023/10/30 10:12:51;;;;;;;;;;;;;;;13.26;100.00;96889.41;5075860;28;19931;-85
2023/10/30 10:15:20;;;;;;;;;;;;;;;13.32;100.00;96888.19;5087148;28;19948;-85
2023/10/30 10:17:46;;;;;;;;;;;;;;;13.42;100.00;96890.63;5091205;28;19982;-86
2023/10/30 10:20:13;;;;;;;;;;;;;;;13.23;100.00;96882.78;5091269;28;19979;-85
2023/10/30 10:22:40;;;;;;;;;;;;;;;13.47;100.00;96887.81;5089852;28;20559;-85
2023/10/30 10:25:10;;;;;;;;;;;;;;;13.48;100.00;96879.47;5082445;28;19986;-86
2023/10/30 10:27:37;;;;;;;;;;;;;;;13.46;100.00;96873.63;5082746;28;20571;-86
2023/10/30 10:30:05;;;;;;;;;;;;;;;13.28;100.00;96869.25;5088182;28;20292;-85
2023/10/30 10:32:32;;;;;;;;;;;;;;;13.40;100.00;96861.44;5077282;28;19936;-85
2023/10/30 10:35:01;;;;;;;;;;;;;;;13.56;100.00;96859.16;5078608;28;19928;-84
2023/10/30 10:37:28;;;;;;;;;;;;;;;13.73;100.00;96856.59;5085934;28;19924;-85
2023/10/30 10:39:54;;;;;;;;;;;;;;;13.89;100.00;96849.72;5078637;28;19928;-86
2023/10/30 10:42:23;;;;;;;;;;;;;;;13.91;100.00;96831.41;5076765;28;19932;-84
2023/10/30 10:44:51;;;;;;;;;;;;;;;13.86;100.00;96844.97;5084167;28;20272;-85
2023/10/30 10:47:18;;;;;;;;;;;;;;;13.95;100.00;96831.59;5086416;28;19963;-87
2023/10/30 10:49:44;;;;;;;;;;;;;;;14.03;100.00;96823.56;5086012;28;20010;-84
2023/10/30 10:52:12;;;;;;;;;;;;;;;13.99;100.00;96825.25;5088712;28;19928;-84
2023/10/30 10:54:44;;;;;;;;;;;;;;;13.70;100.00;96806.22;5088140;28;20507;-86
2023/10/30 10:57:12;;;;;;;;;;;;;;;13.90;100.00;96807.53;5085439;28;19924;-85
2023/10/30 10:59:40;;;;;;;;;;;;;;;13.81;100.00;96788.75;5088990;28;19932;-85
2023/10/30 11:02:10;;;;;;;;;;;;;;;13.94;100.00;96781.69;5087581;28;20402;-85
2023/10/30 11:04:38;;;;;;;;;;;;;;;13.73;100.00;96786.03;5088582;28;19924;-86
2023/10/30 11:07:07;;;;;;;;;;;;;;;13.87;100.00;96782.13;5082310;28;19977;-83
2023/10/30 11:09:40;;;;;;;;;;;;;;;13.89;100.00;96785.31;5086224;28;19928;-87
2023/10/30 11:12:11;;;;;;;;;;;;;;;13.73;100.00;96786.03;5085143;28;19997;-84
2023/10/30 11:14:48;;;;;;;;;;;;;;;14.02;100.00;96783.59;5078383;28;20295;-83
2023/10/30 11:17:15;;;;;;;;;;;;;;;14.02;100.00;96778.22;5084226;28;19947;-84
2023/10/30 11:19:42;;;;;;;;;;;;;;;14.04;100.00;96776.03;5091596;28;19928;-82
2023/10/30 11:22:09;;;;;;;;;;;;;;;13.93;100.00;96772.81;5077804;28;20014;-82
2023/10/30 11:24:35;;;;;;;;;;;;;;;13.97;100.00;96765.75;5083734;28;20567;-83
2023/10/30 11:27:02;;;;;;;;;;;;;;;14.05;100.00;96766.84;5090721;28;19924;-84
2023/10/30 11:29:54;;;;;;;;;;;;;;;14.10;100.00;96757.88;5092538;28;19924;-83
2023/10/30 11:32:22;;;;;;;;;;;;;;;13.84;100.00;96755.91;5088173;28;19928;-83
2023/10/30 11:34:48;;;;;;;;;;;;;;;13.84;100.00;96761.28;5092158;28;19934;-84
2023/10/30 11:37:15;;;;;;;;;;;;;;;14.00;100.00;96767.81;5087445;28;19950;-83
2023/10/30 11:39:42;;;;;;;;;;;;;;;14.22;100.00;96760.75;5093742;28;19928;-84
2023/10/30 11:42:27;;;;;;;;;;;;;;;14.31;100.00;96759.66;5093513;28;20940;-84
2023/10/30 11:44:54;;;;;;;;;;;;;;;14.37;100.00;96747.69;5089234;28;19928;-84
2023/10/30 11:47:23;;;;;;;;;;;;;;;14.41;100.00;96753.22;5092078;28;19981;-84
2023/10/30 11:49:58;;;;;;;;;;;;;;;14.45;100.00;96738.81;5093503;28;20403;-84
2023/10/30 11:52:24;;;;;;;;;;;;;;;14.33;100.00;96735.19;5093386;28;19924;-82
2023/10/30 11:54:50;;;;;;;;;;;;;;;14.37;100.00;96736.94;5074211;28;20014;-83
2023/10/30 11:57:17;;;;;;;;;;;;;;;14.34;100.00;96734.88;5093204;28;19966;-83
2023/10/30 11:59:43;;;;;;;;;;;;;;;14.44;100.00;96731.09;5089342;28;19932;-83
2023/10/30 12:02:10;;;;;;;;;;;;;;;14.51;100.00;96724.13;5089001;28;19975;-83
2023/10/30 12:04:37;;;;;;;;;;;;;;;14.60;100.00;96708.03;5077119;28;19932;-83
2023/10/30 12:07:04;;;;;;;;;;;;;;;14.51;100.00;96693.81;5100317;28;19947;-83
2023/10/30 12:09:30;;;;;;;;;;;;;;;14.43;100.00;96686.53;5088697;28;19934;-83
2023/10/30 12:11:57;;;;;;;;;;;;;;;14.38;100.00;96678.63;5093235;28;19924;-83
2023/10/30 12:14:23;;;;;;;;;;;;;;;14.45;100.00;96670.91;5087485;28;20415;-83
2023/10/30 12:16:50;;;;;;;;;;;;;;;14.22;100.00;96662.19;5087528;28;20324;-82
2023/10/30 12:19:16;;;;;;;;;;;;;;;13.88;100.00;96654.09;5088983;28;20066;-83
2023/10/30 12:21:45;;;;;;;;;;;;;;;13.98;100.00;96645.75;5092121;28;19924;-82
2023/10/30 12:24:11;;;;;;;;;;;;;;;13.90;100.00;96631.22;5093113;28;20342;-83
2023/10/30 12:26:41;;;;;;;;;;;;;;;14.08;100.00;96632.81;5088556;28;20390;-83
2023/10/30 12:29:07;;;;;;;;;;;;;;;14.12;100.00;96632.16;5088542;28;20019;-84
2023/10/30 12:31:34;;;;;;;;;;;;;;;14.20;100.00;96620.66;5092918;28;19928;-83
2023/10/30 12:34:07;;;;;;;;;;;;;;;14.21;100.00;96624.91;5091596;28;19972;-83